sensor_id;sensor_type;location;lat;lon;timestamp;temperature;humidity
22319;DHT22;11327;52.334;9.506;2023-05-07T00:01:01;11.70;99.90
22319;DHT22;11327;52.334;9.506;2023-05-07T00:04:22;11.60;99.90
22319;DHT22;11327;52.334;9.506;2023-05-07T00:07:43;11.50;99.90
22319;DHT22;11327;52.334;9.506;2023-05-07T00:11:04;11.60;99.90
22319;DHT22;11327;52.334;9.506;2023-05-07T00:14:25;11.60;99.90
22319;DHT22;11327;52.334;9.506;2023-05-07T00:17:46;11.60;99.90
22319;DHT22;11327;52.334;9.506;2023-05-07T00:21:06;11.50;99.90
22319;DHT22;11327;52.334;9.506;2023-05-07T00:24:27;11.50;99.90
22319;DHT22;11327;52.334;9.506;2023-05-07T00:27:48;11.30;99.90
22319;DHT22;11327;52.334;9.506;2023-05-07T00:31:09;11.30;99.90
22319;DHT22;11327;52.334;9.506;2023-05-07T00:34:29;11.30;99.90
22319;DHT22;11327;52.334;9.506;2023-05-07T00:37:50;11.40;99.90
22319;DHT22;11327;52.334;9.506;2023-05-07T00:41:11;11.40;99.90
22319;DHT22;11327;52.334;9.506;2023-05-07T00:44:31;11.40;99.90
22319;DHT22;11327;52.334;9.506;2023-05-07T00:47:58;11.30;99.90
22319;DHT22;11327;52.334;9.506;2023-05-07T00:51:19;11.40;99.90
22319;DHT22;11327;52.334;9.506;2023-05-07T00:54:41;11.30;99.90
22319;DHT22;11327;52.334;9.506;2023-05-07T00:58:02;11.20;99.90
22319;DHT22;11327;52.334;9.506;2023-05-07T01:01:23;11.30;99.90
22319;DHT22;11327;52.334;9.506;2023-05-07T01:04:43;11.30;99.90
22319;DHT22;11327;52.334;9.506;2023-05-07T01:08:04;11.20;99.90
22319;DHT22;11327;52.334;9.506;2023-05-07T01:11:25;11.20;99.90
22319;DHT22;11327;52.334;9.506;2023-05-07T01:14:46;11.20;99.90
22319;DHT22;11327;52.334;9.506;2023-05-07T01:18:09;11.20;99.90
22319;DHT22;11327;52.334;9.506;2023-05-07T01:21:32;11.20;99.90
22319;DHT22;11327;52.334;9.506;2023-05-07T01:24:53;11.10;99.90
22319;DHT22;11327;52.334;9.506;2023-05-07T01:28:16;11.10;99.90
22319;DHT22;11327;52.334;9.506;2023-05-07T01:31:37;11.10;99.90
22319;DHT22;11327;52.334;9.506;2023-05-07T01:35:00;11.10;99.90
22319;DHT22;11327;52.334;9.506;2023-05-07T01:38:22;11.10;99.90
22319;DHT22;11327;52.334;9.506;2023-05-07T01:41:44;11.10;99.90
22319;DHT22;11327;52.334;9.506;2023-05-07T01:45:06;11.10;99.90
22319;DHT22;11327;52.334;9.506;2023-05-07T01:48:28;11.10;99.90
22319;DHT22;11327;52.334;9.506;2023-05-07T01:51:49;11.00;99.90
22319;DHT22;11327;52.334;9.506;2023-05-07T01:55:10;11.10;99.90
22319;DHT22;11327;52.334;9.506;2023-05-07T01:58:31;11.00;99.90
22319;DHT22;11327;52.334;9.506;2023-05-07T02:01:52;11.00;99.90
22319;DHT22;11327;52.334;9.506;2023-05-07T02:05:13;11.00;99.90
22319;DHT22;11327;52.334;9.506;2023-05-07T02:08:33;11.10;99.90
22319;DHT22;11327;52.334;9.506;2023-05-07T02:11:54;11.00;99.90
22319;DHT22;11327;52.334;9.506;2023-05-07T02:15:15;10.90;99.90
22319;DHT22;11327;52.334;9.506;2023-05-07T02:18:35;10.90;99.90
22319;DHT22;11327;52.334;9.506;2023-05-07T02:21:58;10.90;99.90
22319;DHT22;11327;52.334;9.506;2023-05-07T02:25:18;10.90;99.90
22319;DHT22;11327;52.334;9.506;2023-05-07T02:28:39;10.90;99.90
22319;DHT22;11327;52.334;9.506;2023-05-07T02:32:00;11.00;99.90
22319;DHT22;11327;52.334;9.506;2023-05-07T02:35:21;11.00;99.90
22319;DHT22;11327;52.334;9.506;2023-05-07T02:38:41;11.00;99.90
22319;DHT22;11327;52.334;9.506;2023-05-07T02:42:02;11.00;99.90
22319;DHT22;11327;52.334;9.506;2023-05-07T02:45:23;10.90;99.90
22319;DHT22;11327;52.334;9.506;2023-05-07T02:48:44;10.90;99.90
22319;DHT22;11327;52.334;9.506;2023-05-07T02:52:05;10.90;99.90
22319;DHT22;11327;52.334;9.506;2023-05-07T02:55:26;10.90;99.90
22319;DHT22;11327;52.334;9.506;2023-05-07T02:58:46;11.00;99.90
22319;DHT22;11327;52.334;9.506;2023-05-07T03:02:07;10.90;99.90
22319;DHT22;11327;52.334;9.506;2023-05-07T03:05:28;10.80;99.90
22319;DHT22;11327;52.334;9.506;2023-05-07T03:08:48;10.80;99.90
22319;DHT22;11327;52.334;9.506;2023-05-07T03:12:09;10.70;99.90
22319;DHT22;11327;52.334;9.506;2023-05-07T03:15:30;10.70;99.90
22319;DHT22;11327;52.334;9.506;2023-05-07T03:18:51;10.70;99.90
22319;DHT22;11327;52.334;9.506;2023-05-07T03:22:11;10.80;99.90
22319;DHT22;11327;52.334;9.506;2023-05-07T03:25:32;10.80;99.90
22319;DHT22;11327;52.334;9.506;2023-05-07T03:28:53;10.80;99.90
22319;DHT22;11327;52.334;9.506;2023-05-07T03:32:13;10.80;99.90
22319;DHT22;11327;52.334;9.506;2023-05-07T03:35:35;10.80;99.90
22319;DHT22;11327;52.334;9.506;2023-05-07T03:38:55;10.80;99.90
22319;DHT22;11327;52.334;9.506;2023-05-07T03:42:16;10.80;99.90
22319;DHT22;11327;52.334;9.506;2023-05-07T03:45:37;10.80;99.90
22319;DHT22;11327;52.334;9.506;2023-05-07T03:48:58;10.80;99.90
22319;DHT22;11327;52.334;9.506;2023-05-07T03:52:18;10.80;99.90
22319;DHT22;11327;52.334;9.506;2023-05-07T03:55:41;10.70;99.90
22319;DHT22;11327;52.334;9.506;2023-05-07T03:59:02;10.70;99.90
22319;DHT22;11327;52.334;9.506;2023-05-07T04:02:22;10.70;99.90
22319;DHT22;11327;52.334;9.506;2023-05-07T04:05:43;10.70;99.90
22319;DHT22;11327;52.334;9.506;2023-05-07T04:09:04;10.60;99.90
22319;DHT22;11327;52.334;9.506;2023-05-07T04:12:25;10.60;99.90
22319;DHT22;11327;52.334;9.506;2023-05-07T04:15:45;10.60;99.90
22319;DHT22;11327;52.334;9.506;2023-05-07T04:19:06;10.60;99.90
22319;DHT22;11327;52.334;9.506;2023-05-07T04:22:27;10.60;99.90
22319;DHT22;11327;52.334;9.506;2023-05-07T04:25:48;10.60;99.90
22319;DHT22;11327;52.334;9.506;2023-05-07T04:29:09;10.60;99.90
22319;DHT22;11327;52.334;9.506;2023-05-07T04:32:30;10.60;99.90
22319;DHT22;11327;52.334;9.506;2023-05-07T04:35:50;10.50;99.90
22319;DHT22;11327;52.334;9.506;2023-05-07T04:39:11;10.70;99.90
22319;DHT22;11327;52.334;9.506;2023-05-07T04:42:32;10.60;99.90
22319;DHT22;11327;52.334;9.506;2023-05-07T04:45:53;10.60;99.90
22319;DHT22;11327;52.334;9.506;2023-05-07T04:49:14;10.80;99.90
22319;DHT22;11327;52.334;9.506;2023-05-07T04:52:34;10.60;99.90
22319;DHT22;11327;52.334;9.506;2023-05-07T04:55:56;10.60;99.90
22319;DHT22;11327;52.334;9.506;2023-05-07T04:59:17;10.50;99.90
22319;DHT22;11327;52.334;9.506;2023-05-07T05:02:38;10.50;99.90
22319;DHT22;11327;52.334;9.506;2023-05-07T05:05:58;10.60;99.90
22319;DHT22;11327;52.334;9.506;2023-05-07T05:09:20;10.50;99.90
22319;DHT22;11327;52.334;9.506;2023-05-07T05:12:41;10.50;99.90
22319;DHT22;11327;52.334;9.506;2023-05-07T05:16:01;10.50;99.90
22319;DHT22;11327;52.334;9.506;2023-05-07T05:19:22;10.40;99.90
22319;DHT22;11327;52.334;9.506;2023-05-07T05:22:43;10.40;99.90
22319;DHT22;11327;52.334;9.506;2023-05-07T05:26:03;10.50;99.90
22319;DHT22;11327;52.334;9.506;2023-05-07T05:29:24;10.40;99.90
22319;DHT22;11327;52.334;9.506;2023-05-07T05:32:45;10.50;99.90
22319;DHT22;11327;52.334;9.506;2023-05-07T05:36:06;10.60;99.90
22319;DHT22;11327;52.334;9.506;2023-05-07T05:39:28;10.60;99.90
22319;DHT22;11327;52.334;9.506;2023-05-07T05:42:49;10.60;99.90
22319;DHT22;11327;52.334;9.506;2023-05-07T05:46:10;10.50;99.90
22319;DHT22;11327;52.334;9.506;2023-05-07T05:49:32;10.50;99.90
22319;DHT22;11327;52.334;9.506;2023-05-07T05:52:52;10.50;99.90
22319;DHT22;11327;52.334;9.506;2023-05-07T05:56:13;10.50;99.90
22319;DHT22;11327;52.334;9.506;2023-05-07T05:59:34;10.60;99.90
22319;DHT22;11327;52.334;9.506;2023-05-07T06:02:55;10.60;99.90
22319;DHT22;11327;52.334;9.506;2023-05-07T06:06:15;10.60;99.90
22319;DHT22;11327;52.334;9.506;2023-05-07T06:09:36;10.70;99.90
22319;DHT22;11327;52.334;9.506;2023-05-07T06:12:57;10.70;99.90
22319;DHT22;11327;52.334;9.506;2023-05-07T06:16:17;10.70;99.90
22319;DHT22;11327;52.334;9.506;2023-05-07T06:19:38;10.70;99.90
22319;DHT22;11327;52.334;9.506;2023-05-07T06:22:59;10.60;99.90
22319;DHT22;11327;52.334;9.506;2023-05-07T06:26:20;10.60;99.90
22319;DHT22;11327;52.334;9.506;2023-05-07T06:29:41;10.70;99.90
22319;DHT22;11327;52.334;9.506;2023-05-07T06:33:02;10.80;99.90
22319;DHT22;11327;52.334;9.506;2023-05-07T06:36:22;10.80;99.90
22319;DHT22;11327;52.334;9.506;2023-05-07T06:39:43;10.80;99.90
22319;DHT22;11327;52.334;9.506;2023-05-07T06:43:04;10.90;99.90
22319;DHT22;11327;52.334;9.506;2023-05-07T06:46:24;10.90;99.90
22319;DHT22;11327;52.334;9.506;2023-05-07T06:49:45;10.90;99.90
22319;DHT22;11327;52.334;9.506;2023-05-07T06:53:06;11.00;99.90
22319;DHT22;11327;52.334;9.506;2023-05-07T06:56:27;11.00;99.90
22319;DHT22;11327;52.334;9.506;2023-05-07T06:59:47;11.00;99.90
22319;DHT22;11327;52.334;9.506;2023-05-07T07:03:08;11.10;99.90
22319;DHT22;11327;52.334;9.506;2023-05-07T07:06:29;11.10;99.90
22319;DHT22;11327;52.334;9.506;2023-05-07T07:09:51;11.00;99.90
22319;DHT22;11327;52.334;9.506;2023-05-07T07:13:12;11.10;99.90
22319;DHT22;11327;52.334;9.506;2023-05-07T07:16:33;11.20;99.90
22319;DHT22;11327;52.334;9.506;2023-05-07T07:19:54;11.40;99.90
22319;DHT22;11327;52.334;9.506;2023-05-07T07:23:14;11.40;99.90
22319;DHT22;11327;52.334;9.506;2023-05-07T07:26:35;11.50;99.90
22319;DHT22;11327;52.334;9.506;2023-05-07T07:29:56;11.50;99.90
22319;DHT22;11327;52.334;9.506;2023-05-07T07:33:17;11.60;99.90
22319;DHT22;11327;52.334;9.506;2023-05-07T07:36:37;11.60;99.90
22319;DHT22;11327;52.334;9.506;2023-05-07T07:40:00;11.70;99.90
22319;DHT22;11327;52.334;9.506;2023-05-07T07:43:20;11.70;99.90
22319;DHT22;11327;52.334;9.506;2023-05-07T07:46:41;11.90;99.90
22319;DHT22;11327;52.334;9.506;2023-05-07T07:50:02;11.80;99.90
22319;DHT22;11327;52.334;9.506;2023-05-07T07:53:23;11.90;99.90
22319;DHT22;11327;52.334;9.506;2023-05-07T07:56:43;11.80;99.90
22319;DHT22;11327;52.334;9.506;2023-05-07T08:00:06;11.80;99.90
22319;DHT22;11327;52.334;9.506;2023-05-07T08:03:27;11.80;99.90
22319;DHT22;11327;52.334;9.506;2023-05-07T08:06:48;11.80;99.90
22319;DHT22;11327;52.334;9.506;2023-05-07T08:10:09;11.80;99.90
22319;DHT22;11327;52.334;9.506;2023-05-07T08:13:30;11.70;99.90
22319;DHT22;11327;52.334;9.506;2023-05-07T08:16:50;11.70;99.90
22319;DHT22;11327;52.334;9.506;2023-05-07T08:20:11;11.90;99.90
22319;DHT22;11327;52.334;9.506;2023-05-07T08:23:32;11.90;99.90
22319;DHT22;11327;52.334;9.506;2023-05-07T08:26:54;11.90;99.90
22319;DHT22;11327;52.334;9.506;2023-05-07T08:30:15;11.90;99.90
22319;DHT22;11327;52.334;9.506;2023-05-07T08:33:36;11.80;99.90
22319;DHT22;11327;52.334;9.506;2023-05-07T08:36:58;11.80;99.90
22319;DHT22;11327;52.334;9.506;2023-05-07T08:40:21;11.90;99.90
22319;DHT22;11327;52.334;9.506;2023-05-07T08:43:49;11.90;99.90
22319;DHT22;11327;52.334;9.506;2023-05-07T08:47:07;11.80;99.90
22319;DHT22;11327;52.334;9.506;2023-05-07T08:50:29;11.90;99.90
22319;DHT22;11327;52.334;9.506;2023-05-07T08:53:50;12.00;99.90
22319;DHT22;11327;52.334;9.506;2023-05-07T08:57:10;11.90;99.90
22319;DHT22;11327;52.334;9.506;2023-05-07T09:00:32;12.00;99.90
22319;DHT22;11327;52.334;9.506;2023-05-07T09:03:53;12.00;99.90
22319;DHT22;11327;52.334;9.506;2023-05-07T09:07:13;12.10;99.90
22319;DHT22;11327;52.334;9.506;2023-05-07T09:10:34;12.10;99.90
22319;DHT22;11327;52.334;9.506;2023-05-07T09:13:56;12.20;99.90
22319;DHT22;11327;52.334;9.506;2023-05-07T09:17:18;12.20;99.90
22319;DHT22;11327;52.334;9.506;2023-05-07T09:20:39;12.20;99.90
22319;DHT22;11327;52.334;9.506;2023-05-07T09:24:00;12.30;99.90
22319;DHT22;11327;52.334;9.506;2023-05-07T09:27:21;12.30;99.90
22319;DHT22;11327;52.334;9.506;2023-05-07T09:30:41;12.40;99.90
22319;DHT22;11327;52.334;9.506;2023-05-07T09:34:04;12.40;99.90
22319;DHT22;11327;52.334;9.506;2023-05-07T09:37:26;12.40;99.90
22319;DHT22;11327;52.334;9.506;2023-05-07T09:40:47;12.50;99.90
22319;DHT22;11327;52.334;9.506;2023-05-07T09:44:08;12.60;99.90
22319;DHT22;11327;52.334;9.506;2023-05-07T09:47:32;12.60;99.90
22319;DHT22;11327;52.334;9.506;2023-05-07T09:50:55;12.60;99.90
22319;DHT22;11327;52.334;9.506;2023-05-07T09:54:18;12.70;99.90
22319;DHT22;11327;52.334;9.506;2023-05-07T09:57:40;12.70;99.90
22319;DHT22;11327;52.334;9.506;2023-05-07T10:01:02;12.90;99.90
22319;DHT22;11327;52.334;9.506;2023-05-07T10:04:23;12.90;99.90
22319;DHT22;11327;52.334;9.506;2023-05-07T10:07:45;13.00;99.90
22319;DHT22;11327;52.334;9.506;2023-05-07T10:11:06;12.80;99.90
22319;DHT22;11327;52.334;9.506;2023-05-07T10:14:27;13.00;99.90
22319;DHT22;11327;52.334;9.506;2023-05-07T10:17:49;13.10;99.90
22319;DHT22;11327;52.334;9.506;2023-05-07T10:21:18;13.10;99.90
22319;DHT22;11327;52.334;9.506;2023-05-07T10:24:39;13.00;99.90
22319;DHT22;11327;52.334;9.506;2023-05-07T10:28:06;13.10;99.90
22319;DHT22;11327;52.334;9.506;2023-05-07T10:31:50;13.10;99.90
22319;DHT22;11327;52.334;9.506;2023-05-07T10:35:20;13.20;99.90
22319;DHT22;11327;52.334;9.506;2023-05-07T10:38:41;13.10;99.90
22319;DHT22;11327;52.334;9.506;2023-05-07T10:42:13;13.10;99.90
22319;DHT22;11327;52.334;9.506;2023-05-07T10:45:34;13.10;99.90
22319;DHT22;11327;52.334;9.506;2023-05-07T10:52:28;13.00;99.90
22319;DHT22;11327;52.334;9.506;2023-05-07T10:55:52;13.20;99.90
22319;DHT22;11327;52.334;9.506;2023-05-07T11:06:21;13.20;99.90
22319;DHT22;11327;52.334;9.506;2023-05-07T11:09:56;13.20;99.90
22319;DHT22;11327;52.334;9.506;2023-05-07T11:17:08;13.20;99.90
22319;DHT22;11327;52.334;9.506;2023-05-07T11:20:50;13.30;99.90
22319;DHT22;11327;52.334;9.506;2023-05-07T11:24:11;13.30;99.90
22319;DHT22;11327;52.334;9.506;2023-05-07T11:27:33;13.40;99.90
22319;DHT22;11327;52.334;9.506;2023-05-07T11:30:54;13.40;99.90
22319;DHT22;11327;52.334;9.506;2023-05-07T11:34:15;13.40;99.90
22319;DHT22;11327;52.334;9.506;2023-05-07T11:37:38;13.40;99.90
22319;DHT22;11327;52.334;9.506;2023-05-07T11:40:59;13.50;99.90
22319;DHT22;11327;52.334;9.506;2023-05-07T11:44:21;13.60;99.90
22319;DHT22;11327;52.334;9.506;2023-05-07T11:47:42;13.60;99.90
22319;DHT22;11327;52.334;9.506;2023-05-07T11:51:04;13.60;99.90
22319;DHT22;11327;52.334;9.506;2023-05-07T11:54:25;13.60;99.90
22319;DHT22;11327;52.334;9.506;2023-05-07T11:57:46;13.70;99.90
22319;DHT22;11327;52.334;9.506;2023-05-07T12:01:08;13.70;99.90
22319;DHT22;11327;52.334;9.506;2023-05-07T12:04:30;13.80;99.90
22319;DHT22;11327;52.334;9.506;2023-05-07T12:07:55;14.00;99.90
22319;DHT22;11327;52.334;9.506;2023-05-07T12:11:23;13.90;99.90
22319;DHT22;11327;52.334;9.506;2023-05-07T12:14:46;13.90;99.90
22319;DHT22;11327;52.334;9.506;2023-05-07T12:18:07;14.10;99.90
22319;DHT22;11327;52.334;9.506;2023-05-07T12:21:28;14.20;99.90
22319;DHT22;11327;52.334;9.506;2023-05-07T12:24:58;14.20;99.90
22319;DHT22;11327;52.334;9.506;2023-05-07T12:28:19;14.30;99.90
22319;DHT22;11327;52.334;9.506;2023-05-07T12:31:41;14.50;99.90
22319;DHT22;11327;52.334;9.506;2023-05-07T12:35:02;14.60;99.90
22319;DHT22;11327;52.334;9.506;2023-05-07T12:38:23;14.80;99.90
22319;DHT22;11327;52.334;9.506;2023-05-07T12:41:57;14.90;99.90
22319;DHT22;11327;52.334;9.506;2023-05-07T12:45:20;15.20;99.90
22319;DHT22;11327;52.334;9.506;2023-05-07T12:48:43;15.10;99.90
22319;DHT22;11327;52.334;9.506;2023-05-07T12:52:05;15.20;99.90
22319;DHT22;11327;52.334;9.506;2023-05-07T12:55:28;15.40;99.90
22319;DHT22;11327;52.334;9.506;2023-05-07T12:58:49;15.50;99.90
22319;DHT22;11327;52.334;9.506;2023-05-07T13:02:10;15.30;99.90
22319;DHT22;11327;52.334;9.506;2023-05-07T13:05:31;15.50;99.90
22319;DHT22;11327;52.334;9.506;2023-05-07T13:08:52;15.60;99.90
22319;DHT22;11327;52.334;9.506;2023-05-07T13:12:13;15.60;99.90
22319;DHT22;11327;52.334;9.506;2023-05-07T13:15:34;15.40;99.90
22319;DHT22;11327;52.334;9.506;2023-05-07T13:18:55;15.30;99.90
22319;DHT22;11327;52.334;9.506;2023-05-07T13:22:16;15.30;99.90
22319;DHT22;11327;52.334;9.506;2023-05-07T13:25:37;15.30;99.90
22319;DHT22;11327;52.334;9.506;2023-05-07T13:28:58;15.20;99.90
22319;DHT22;11327;52.334;9.506;2023-05-07T13:32:18;15.10;99.90
22319;DHT22;11327;52.334;9.506;2023-05-07T13:35:39;14.90;99.90
22319;DHT22;11327;52.334;9.506;2023-05-07T13:39:00;15.10;99.90
22319;DHT22;11327;52.334;9.506;2023-05-07T13:42:21;15.10;99.90
22319;DHT22;11327;52.334;9.506;2023-05-07T13:45:42;15.10;99.90
22319;DHT22;11327;52.334;9.506;2023-05-07T13:49:02;14.90;99.90
22319;DHT22;11327;52.334;9.506;2023-05-07T13:52:23;14.90;99.90
22319;DHT22;11327;52.334;9.506;2023-05-07T13:55:46;14.90;99.90
22319;DHT22;11327;52.334;9.506;2023-05-07T13:59:07;14.90;99.90
22319;DHT22;11327;52.334;9.506;2023-05-07T14:02:28;15.10;99.90
22319;DHT22;11327;52.334;9.506;2023-05-07T14:05:49;15.20;99.90
22319;DHT22;11327;52.334;9.506;2023-05-07T14:09:10;15.50;99.90
22319;DHT22;11327;52.334;9.506;2023-05-07T14:12:33;15.40;99.90
22319;DHT22;11327;52.334;9.506;2023-05-07T14:15:53;15.70;99.90
22319;DHT22;11327;52.334;9.506;2023-05-07T14:19:14;15.70;99.90
22319;DHT22;11327;52.334;9.506;2023-05-07T14:22:35;15.80;99.90
22319;DHT22;11327;52.334;9.506;2023-05-07T14:25:56;15.70;99.90
22319;DHT22;11327;52.334;9.506;2023-05-07T14:29:17;15.80;99.90
22319;DHT22;11327;52.334;9.506;2023-05-07T14:32:39;15.60;99.90
22319;DHT22;11327;52.334;9.506;2023-05-07T14:36:00;15.70;99.90
22319;DHT22;11327;52.334;9.506;2023-05-07T14:39:20;15.90;99.90
22319;DHT22;11327;52.334;9.506;2023-05-07T14:42:41;16.00;99.90
22319;DHT22;11327;52.334;9.506;2023-05-07T14:46:02;15.90;99.90
22319;DHT22;11327;52.334;9.506;2023-05-07T14:49:23;16.20;99.90
22319;DHT22;11327;52.334;9.506;2023-05-07T14:52:44;16.10;99.90
22319;DHT22;11327;52.334;9.506;2023-05-07T14:56:05;15.80;99.90
22319;DHT22;11327;52.334;9.506;2023-05-07T14:59:26;15.70;99.90
22319;DHT22;11327;52.334;9.506;2023-05-07T15:02:48;15.80;99.90
22319;DHT22;11327;52.334;9.506;2023-05-07T15:06:08;15.90;99.90
22319;DHT22;11327;52.334;9.506;2023-05-07T15:09:29;15.70;99.90
22319;DHT22;11327;52.334;9.506;2023-05-07T15:12:50;15.80;99.90
22319;DHT22;11327;52.334;9.506;2023-05-07T15:16:11;15.90;99.90
22319;DHT22;11327;52.334;9.506;2023-05-07T15:19:31;15.90;99.90
22319;DHT22;11327;52.334;9.506;2023-05-07T15:22:52;15.90;99.90
22319;DHT22;11327;52.334;9.506;2023-05-07T15:26:13;16.00;99.90
22319;DHT22;11327;52.334;9.506;2023-05-07T15:29:34;16.10;99.90
22319;DHT22;11327;52.334;9.506;2023-05-07T15:32:54;15.90;99.90
22319;DHT22;11327;52.334;9.506;2023-05-07T15:36:16;16.10;99.90
22319;DHT22;11327;52.334;9.506;2023-05-07T15:39:36;16.00;99.90
22319;DHT22;11327;52.334;9.506;2023-05-07T15:42:57;15.80;99.90
22319;DHT22;11327;52.334;9.506;2023-05-07T15:46:20;15.90;99.90
22319;DHT22;11327;52.334;9.506;2023-05-07T15:49:41;15.70;99.90
22319;DHT22;11327;52.334;9.506;2023-05-07T15:53:03;15.50;99.90
22319;DHT22;11327;52.334;9.506;2023-05-07T15:56:24;15.40;99.90
22319;DHT22;11327;52.334;9.506;2023-05-07T15:59:45;15.60;99.90
22319;DHT22;11327;52.334;9.506;2023-05-07T16:03:06;15.60;99.90
22319;DHT22;11327;52.334;9.506;2023-05-07T16:06:27;15.50;99.90
22319;DHT22;11327;52.334;9.506;2023-05-07T16:09:48;15.60;99.90
22319;DHT22;11327;52.334;9.506;2023-05-07T16:13:08;15.70;99.90
22319;DHT22;11327;52.334;9.506;2023-05-07T16:16:33;15.60;99.90
22319;DHT22;11327;52.334;9.506;2023-05-07T16:19:54;15.60;99.90
22319;DHT22;11327;52.334;9.506;2023-05-07T16:23:15;15.40;99.90
22319;DHT22;11327;52.334;9.506;2023-05-07T16:26:36;15.40;99.90
22319;DHT22;11327;52.334;9.506;2023-05-07T16:29:56;15.40;99.90
22319;DHT22;11327;52.334;9.506;2023-05-07T16:33:17;15.40;99.90
22319;DHT22;11327;52.334;9.506;2023-05-07T16:36:39;15.30;99.90
22319;DHT22;11327;52.334;9.506;2023-05-07T16:40:00;15.20;99.90
22319;DHT22;11327;52.334;9.506;2023-05-07T16:43:21;15.10;99.90
22319;DHT22;11327;52.334;9.506;2023-05-07T16:46:42;15.10;99.90
22319;DHT22;11327;52.334;9.506;2023-05-07T16:50:03;14.90;99.90
22319;DHT22;11327;52.334;9.506;2023-05-07T16:53:25;14.80;99.90
22319;DHT22;11327;52.334;9.506;2023-05-07T16:56:45;14.90;99.90
22319;DHT22;11327;52.334;9.506;2023-05-07T17:00:08;15.00;99.90
22319;DHT22;11327;52.334;9.506;2023-05-07T17:03:30;14.90;99.90
22319;DHT22;11327;52.334;9.506;2023-05-07T17:06:51;14.70;99.90
22319;DHT22;11327;52.334;9.506;2023-05-07T17:10:12;14.60;99.90
22319;DHT22;11327;52.334;9.506;2023-05-07T17:13:33;14.40;99.90
22319;DHT22;11327;52.334;9.506;2023-05-07T17:16:54;14.30;99.90
22319;DHT22;11327;52.334;9.506;2023-05-07T17:20:14;14.30;99.90
22319;DHT22;11327;52.334;9.506;2023-05-07T17:23:35;14.30;99.90
22319;DHT22;11327;52.334;9.506;2023-05-07T17:26:56;14.30;99.90
22319;DHT22;11327;52.334;9.506;2023-05-07T17:30:17;14.10;99.90
22319;DHT22;11327;52.334;9.506;2023-05-07T17:33:37;14.00;99.90
22319;DHT22;11327;52.334;9.506;2023-05-07T17:36:58;14.00;99.90
22319;DHT22;11327;52.334;9.506;2023-05-07T17:40:20;13.90;99.90
22319;DHT22;11327;52.334;9.506;2023-05-07T17:43:41;13.80;99.90
22319;DHT22;11327;52.334;9.506;2023-05-07T17:47:02;13.90;99.90
22319;DHT22;11327;52.334;9.506;2023-05-07T17:50:23;13.70;99.90
22319;DHT22;11327;52.334;9.506;2023-05-07T17:53:44;13.60;99.90
22319;DHT22;11327;52.334;9.506;2023-05-07T17:57:05;13.50;99.90
22319;DHT22;11327;52.334;9.506;2023-05-07T18:00:25;13.40;99.90
22319;DHT22;11327;52.334;9.506;2023-05-07T18:03:46;13.40;99.90
22319;DHT22;11327;52.334;9.506;2023-05-07T18:07:07;13.40;99.90
22319;DHT22;11327;52.334;9.506;2023-05-07T18:10:28;13.30;99.90
22319;DHT22;11327;52.334;9.506;2023-05-07T18:13:48;13.30;99.90
22319;DHT22;11327;52.334;9.506;2023-05-07T18:17:09;13.30;99.90
22319;DHT22;11327;52.334;9.506;2023-05-07T18:20:30;13.20;99.90
22319;DHT22;11327;52.334;9.506;2023-05-07T18:23:51;13.20;99.90
22319;DHT22;11327;52.334;9.506;2023-05-07T18:27:11;13.10;99.90
22319;DHT22;11327;52.334;9.506;2023-05-07T18:30:32;13.10;99.90
22319;DHT22;11327;52.334;9.506;2023-05-07T18:33:53;13.00;99.90
22319;DHT22;11327;52.334;9.506;2023-05-07T18:37:15;12.90;99.90
22319;DHT22;11327;52.334;9.506;2023-05-07T18:40:36;12.70;99.90
22319;DHT22;11327;52.334;9.506;2023-05-07T18:43:56;12.80;99.90
22319;DHT22;11327;52.334;9.506;2023-05-07T18:47:17;12.80;99.90
22319;DHT22;11327;52.334;9.506;2023-05-07T18:50:42;12.70;99.90
22319;DHT22;11327;52.334;9.506;2023-05-07T18:54:04;12.70;99.90
22319;DHT22;11327;52.334;9.506;2023-05-07T18:57:24;12.60;99.90
22319;DHT22;11327;52.334;9.506;2023-05-07T19:00:47;12.60;99.90
22319;DHT22;11327;52.334;9.506;2023-05-07T19:04:09;12.50;99.90
22319;DHT22;11327;52.334;9.506;2023-05-07T19:07:30;12.50;99.90
22319;DHT22;11327;52.334;9.506;2023-05-07T19:10:50;12.30;99.90
22319;DHT22;11327;52.334;9.506;2023-05-07T19:14:11;12.40;99.90
22319;DHT22;11327;52.334;9.506;2023-05-07T19:17:32;12.30;99.90
22319;DHT22;11327;52.334;9.506;2023-05-07T19:20:54;12.20;99.90
22319;DHT22;11327;52.334;9.506;2023-05-07T19:24:15;12.20;99.90
22319;DHT22;11327;52.334;9.506;2023-05-07T19:27:36;12.20;99.90
22319;DHT22;11327;52.334;9.506;2023-05-07T19:30:56;12.10;99.90
22319;DHT22;11327;52.334;9.506;2023-05-07T19:34:17;12.10;99.90
22319;DHT22;11327;52.334;9.506;2023-05-07T19:37:38;12.00;99.90
22319;DHT22;11327;52.334;9.506;2023-05-07T19:40:59;11.90;99.90
22319;DHT22;11327;52.334;9.506;2023-05-07T19:44:20;11.90;99.90
22319;DHT22;11327;52.334;9.506;2023-05-07T19:47:40;11.90;99.90
22319;DHT22;11327;52.334;9.506;2023-05-07T19:51:01;11.90;99.90
22319;DHT22;11327;52.334;9.506;2023-05-07T19:54:22;11.80;99.90
22319;DHT22;11327;52.334;9.506;2023-05-07T19:57:43;11.80;99.90
22319;DHT22;11327;52.334;9.506;2023-05-07T20:01:06;11.80;99.90
22319;DHT22;11327;52.334;9.506;2023-05-07T20:04:27;11.70;99.90
22319;DHT22;11327;52.334;9.506;2023-05-07T20:07:49;11.70;99.90
22319;DHT22;11327;52.334;9.506;2023-05-07T20:11:10;11.80;99.90
22319;DHT22;11327;52.334;9.506;2023-05-07T20:14:33;11.60;99.90
22319;DHT22;11327;52.334;9.506;2023-05-07T20:17:53;11.70;99.90
22319;DHT22;11327;52.334;9.506;2023-05-07T20:21:14;11.60;99.90
22319;DHT22;11327;52.334;9.506;2023-05-07T20:24:36;11.60;99.90
22319;DHT22;11327;52.334;9.506;2023-05-07T20:27:58;11.60;99.90
22319;DHT22;11327;52.334;9.506;2023-05-07T20:31:19;11.60;99.90
22319;DHT22;11327;52.334;9.506;2023-05-07T20:34:40;11.50;99.90
22319;DHT22;11327;52.334;9.506;2023-05-07T20:38:00;11.50;99.90
22319;DHT22;11327;52.334;9.506;2023-05-07T20:41:21;11.40;99.90
22319;DHT22;11327;52.334;9.506;2023-05-07T20:44:44;11.40;99.90
22319;DHT22;11327;52.334;9.506;2023-05-07T20:48:04;11.40;99.90
22319;DHT22;11327;52.334;9.506;2023-05-07T20:51:25;11.40;99.90
22319;DHT22;11327;52.334;9.506;2023-05-07T20:54:46;11.40;99.90
22319;DHT22;11327;52.334;9.506;2023-05-07T20:58:09;11.30;99.90
22319;DHT22;11327;52.334;9.506;2023-05-07T21:01:30;11.30;99.90
22319;DHT22;11327;52.334;9.506;2023-05-07T21:04:50;11.40;99.90
22319;DHT22;11327;52.334;9.506;2023-05-07T21:08:11;11.40;99.90
22319;DHT22;11327;52.334;9.506;2023-05-07T21:11:32;11.40;99.90
22319;DHT22;11327;52.334;9.506;2023-05-07T21:14:53;11.30;99.90
22319;DHT22;11327;52.334;9.506;2023-05-07T21:18:14;11.30;99.90
22319;DHT22;11327;52.334;9.506;2023-05-07T21:21:35;11.20;99.90
22319;DHT22;11327;52.334;9.506;2023-05-07T21:24:56;11.20;99.90